Time;durP1;ratioP1;P1;durP2;ratioP2;P2;SDS_P1;SDS_P2;PMS_P1;PMS_P2;Temp;Humidity;BMP_temperature;BMP_pressure;BME280_temperature;BME280_humidity;BME280_pressure;Samples;Min_cycle;Max_cycle;Signal;HPM_P1;HPM_P2
2021/06/08 00:00:21;;;;;;;22.75;12.63;;;16.70;85.30;;;;;;5052298;28;20674;-84
2021/06/08 00:02:47;;;;;;;14.73;12.35;;;16.70;85.20;;;;;;5053550;28;20243;-84
2021/06/08 00:05:13;;;;;;;14.07;12.60;;;16.70;85.20;;;;;;5053478;28;20682;-84
2021/06/08 00:07:38;;;;;;;13.40;11.77;;;16.60;85.30;;;;;;5053321;28;20282;-84
2021/06/08 00:10:05;;;;;;;19.45;13.10;;;16.60;85.20;;;;;;5052972;28;20196;-84
2021/06/08 00:12:31;;;;;;;14.52;12.65;;;16.40;85.40;;;;;;5053412;28;20172;-84
2021/06/08 00:14:57;;;;;;;18.95;13.13;;;16.40;85.60;;;;;;5052254;28;20179;-84
2021/06/08 00:17:22;;;;;;;17.42;11.88;;;16.40;85.50;;;;;;5052073;28;20213;-85
2021/06/08 00:19:48;;;;;;;12.25;11.15;;;16.40;85.50;;;;;;5051974;28;20644;-84
2021/06/08 00:22:14;;;;;;;14.02;11.52;;;16.30;85.50;;;;;;5053201;28;20172;-84
2021/06/08 00:24:40;;;;;;;13.80;11.57;;;16.30;85.50;;;;;;5053781;28;20175;-84
2021/06/08 00:27:07;;;;;;;12.38;11.05;;;16.30;85.40;;;;;;5051730;28;20308;-84
2021/06/08 00:29:33;;;;;;;11.95;10.73;;;16.30;85.30;;;;;;5051696;28;20229;-84
2021/06/08 00:31:59;;;;;;;16.10;11.18;;;16.30;85.20;;;;;;5053089;28;20165;-83
2021/06/08 00:34:25;;;;;;;14.88;11.02;;;16.30;85.20;;;;;;5051824;28;20221;-84
2021/06/08 00:36:50;;;;;;;11.15;10.02;;;16.30;85.20;;;;;;5051543;28;20210;-83
2021/06/08 00:39:16;;;;;;;13.20;10.65;;;16.30;85.30;;;;;;5053075;28;20188;-85
2021/06/08 00:41:44;;;;;;;14.82;10.60;;;16.30;85.40;;;;;;5051673;28;20553;-84
2021/06/08 00:44:13;;;;;;;11.52;10.27;;;16.30;85.50;;;;;;5052912;28;20594;-85
2021/06/08 00:46:40;;;;;;;11.70;9.98;;;16.30;85.60;;;;;;5052913;28;20221;-85
2021/06/08 00:49:05;;;;;;;10.82;9.82;;;16.30;85.60;;;;;;5052851;28;20199;-85
2021/06/08 00:51:31;;;;;;;11.55;10.45;;;16.30;85.50;;;;;;5052859;28;20164;-85
2021/06/08 00:53:59;;;;;;;10.88;9.77;;;16.30;85.60;;;;;;5051591;28;20176;-83
2021/06/08 00:56:25;;;;;;;11.30;9.98;;;16.20;85.60;;;;;;5051574;28;20183;-84
2021/06/08 00:58:50;;;;;;;11.88;9.27;;;16.20;85.60;;;;;;5052756;28;20196;-85
2021/06/08 01:01:16;;;;;;;10.77;9.68;;;16.30;85.40;;;;;;5051525;28;20180;-83
2021/06/08 01:03:41;;;;;;;11.20;10.07;;;16.30;85.50;;;;;;5052776;28;20167;-84
2021/06/08 01:06:07;;;;;;;11.68;9.57;;;16.30;85.50;;;;;;5052812;28;20593;-84
2021/06/08 01:08:33;;;;;;;11.68;10.48;;;16.20;85.70;;;;;;5051606;28;20235;-84
2021/06/08 01:10:58;;;;;;;11.98;10.30;;;16.20;86.00;;;;;;5052703;28;20195;-85
2021/06/08 01:13:26;;;;;;;11.50;9.23;;;16.00;86.40;;;;;;5051391;28;20168;-84
2021/06/08 01:15:52;;;;;;;11.85;9.68;;;16.00;86.40;;;;;;5052912;28;20537;-84
2021/06/08 01:18:18;;;;;;;10.90;9.32;;;16.00;86.30;;;;;;5051320;28;20192;-84
2021/06/08 01:20:44;;;;;;;11.50;9.65;;;16.10;86.20;;;;;;5051422;28;20219;-84
2021/06/08 01:23:10;;;;;;;13.15;10.60;;;16.20;85.90;;;;;;5055528;28;20671;-84
2021/06/08 01:25:35;;;;;;;12.00;10.70;;;16.10;86.10;;;;;;5055114;28;20215;-83
2021/06/08 01:28:01;;;;;;;11.98;10.88;;;16.10;86.00;;;;;;5056494;28;20200;-84
2021/06/08 01:30:29;;;;;;;12.93;11.02;;;16.10;86.00;;;;;;5056274;28;20671;-84
2021/06/08 01:32:56;;;;;;;13.32;11.82;;;16.00;86.30;;;;;;5055124;28;20171;-84
2021/06/08 01:35:23;;;;;;;13.32;10.95;;;15.90;86.40;;;;;;5056300;28;20173;-84
2021/06/08 01:37:49;;;;;;;16.08;13.00;;;15.80;86.60;;;;;;5056091;28;20585;-85
2021/06/08 01:40:17;;;;;;;17.92;13.80;;;15.70;86.90;;;;;;5054883;28;20176;-85
2021/06/08 01:42:44;;;;;;;14.80;13.40;;;15.70;87.10;;;;;;5056069;28;20648;-84
2021/06/08 01:45:13;;;;;;;16.98;12.43;;;15.70;87.00;;;;;;5054662;28;20180;-84
2021/06/08 01:47:39;;;;;;;14.80;13.40;;;15.70;86.90;;;;;;5055961;28;20249;-84
2021/06/08 01:50:05;;;;;;;16.25;13.48;;;15.70;86.60;;;;;;5055966;28;20604;-84
2021/06/08 01:52:46;;;;;;;17.10;15.32;;;15.70;86.50;;;;;;5056601;28;20251;-84
2021/06/08 01:55:31;;;;;;;16.38;14.82;;;15.60;86.60;;;;;;5054713;28;20203;-84
2021/06/08 01:58:14;;;;;;;21.08;18.98;;;15.60;86.50;;;;;;5054579;28;20624;-84
2021/06/08 02:00:49;;;;;;;22.52;20.17;;;15.60;86.40;;;;;;5054640;28;20727;-85
2021/06/08 02:03:32;;;;;;;23.27;20.88;;;15.60;86.40;;;;;;5055905;28;20246;-84
2021/06/08 02:06:04;;;;;;;22.17;19.95;;;15.70;86.30;;;;;;5054502;28;20649;-84
2021/06/08 02:08:36;;;;;;;22.85;20.75;;;15.60;86.20;;;;;;5055640;28;20196;-84
2021/06/08 02:11:13;;;;;;;21.52;19.48;;;15.70;86.20;;;;;;5054442;28;20613;-84
2021/06/08 02:13:49;;;;;;;24.92;19.20;;;15.60;86.20;;;;;;5055693;28;20176;-84
2021/06/08 02:16:29;;;;;;;20.73;18.83;;;15.60;86.10;;;;;;5054235;28;20670;-84
2021/06/08 02:18:55;;;;;;;19.33;17.27;;;15.60;86.10;;;;;;5055465;28;20180;-84
2021/06/08 02:21:35;;;;;;;18.80;17.10;;;15.60;86.10;;;;;;5055424;28;20226;-84
2021/06/08 02:24:02;;;;;;;18.60;16.67;;;15.60;86.10;;;;;;5054177;28;20195;-84
2021/06/08 02:26:29;;;;;;;23.33;18.40;;;15.60;85.90;;;;;;5055313;28;20704;-84
2021/06/08 02:28:56;;;;;;;22.80;17.52;;;15.60;85.90;;;;;;5053916;28;20208;-84
2021/06/08 02:31:24;;;;;;;19.33;16.60;;;15.60;85.90;;;;;;5053896;28;20180;-84
2021/06/08 02:33:51;;;;;;;17.13;15.32;;;15.60;85.80;;;;;;5055011;28;20168;-84
2021/06/08 02:36:18;;;;;;;18.10;16.30;;;15.60;85.80;;;;;;5055058;28;20268;-85
2021/06/08 02:38:45;;;;;;;18.30;16.33;;;15.50;85.80;;;;;;5053744;28;20299;-84
2021/06/08 02:41:11;;;;;;;19.73;16.33;;;15.40;86.10;;;;;;5055080;28;20263;-84
2021/06/08 02:43:37;;;;;;;17.92;16.08;;;15.50;86.00;;;;;;5055025;28;20168;-85
2021/06/08 02:46:05;;;;;;;17.33;15.55;;;15.40;85.90;;;;;;5053683;28;20176;-84
2021/06/08 02:48:31;;;;;;;17.73;14.93;;;15.30;86.00;;;;;;5054937;28;20261;-84
2021/06/08 02:50:58;;;;;;;18.92;14.18;;;15.20;86.20;;;;;;5055157;28;20671;-84
2021/06/08 02:53:26;;;;;;;16.30;14.25;;;15.20;86.30;;;;;;5053659;28;20311;-85
2021/06/08 02:55:52;;;;;;;14.70;13.13;;;15.20;86.20;;;;;;5054797;28;20169;-84
2021/06/08 02:58:20;;;;;;;14.60;12.93;;;15.20;86.30;;;;;;5053502;28;20275;-84
2021/06/08 03:00:46;;;;;;;17.75;13.57;;;15.20;86.30;;;;;;5053424;28;20212;-84
2021/06/08 03:03:18;;;;;;;17.02;12.35;;;15.20;86.30;;;;;;5053321;28;20176;-84
2021/06/08 03:05:57;;;;;;;14.50;12.98;;;15.20;86.30;;;;;;5053348;28;20164;-84
2021/06/08 03:08:55;;;;;;;16.00;13.25;;;15.20;86.20;;;;;;5053203;28;20200;-85
2021/06/08 03:11:26;;;;;;;13.85;12.40;;;15.20;86.20;;;;;;5029785;28;20218;-85
2021/06/08 03:13:52;;;;;;;13.93;12.68;;;15.20;86.30;;;;;;5053274;28;20168;-84
2021/06/08 03:16:20;;;;;;;15.40;13.02;;;15.20;86.40;;;;;;5053186;28;20218;-85
2021/06/08 03:18:49;;;;;;;13.95;12.60;;;15.20;86.20;;;;;;5054220;28;20188;-85
2021/06/08 03:21:33;;;;;;;14.00;11.88;;;15.20;86.30;;;;;;5054335;28;20255;-84
2021/06/08 03:24:02;;;;;;;16.27;12.57;;;15.20;86.30;;;;;;5054514;28;20157;-84
2021/06/08 03:26:31;;;;;;;15.18;12.98;;;15.20;86.30;;;;;;5052893;28;20188;-84
2021/06/08 03:28:58;;;;;;;14.35;12.50;;;15.20;86.40;;;;;;5052811;28;20196;-84
2021/06/08 03:31:25;;;;;;;13.00;11.70;;;15.20;86.30;;;;;;5052765;28;20212;-84
2021/06/08 03:33:52;;;;;;;15.00;13.50;;;15.20;86.40;;;;;;5052776;28;20172;-84
2021/06/08 03:36:18;;;;;;;15.73;13.88;;;15.20;86.50;;;;;;5052800;28;20226;-84
2021/06/08 03:38:45;;;;;;;14.80;13.50;;;15.20;86.80;;;;;;5052478;28;20227;-84
2021/06/08 03:41:11;;;;;;;15.98;13.82;;;15.10;87.10;;;;;;5052666;28;20693;-84
2021/06/08 03:43:37;;;;;;;19.73;15.07;;;15.00;87.30;;;;;;5052612;28;20198;-84
2021/06/08 03:46:03;;;;;;;17.58;14.80;;;14.90;87.70;;;;;;5052015;28;20183;-83
2021/06/08 03:48:29;;;;;;;19.02;15.30;;;15.00;87.60;;;;;;5052440;28;20188;-84
2021/06/08 03:50:55;;;;;;;17.83;15.18;;;15.00;87.50;;;;;;5053613;28;20274;-84
2021/06/08 03:53:21;;;;;;;22.85;16.80;;;15.00;87.50;;;;;;5052430;28;20168;-84
2021/06/08 03:55:50;;;;;;;18.73;16.55;;;15.00;87.40;;;;;;5052376;28;20172;-84
2021/06/08 03:58:18;;;;;;;18.27;16.52;;;15.00;87.40;;;;;;5052296;28;20188;-84
2021/06/08 04:00:47;;;;;;;18.75;16.85;;;15.00;87.40;;;;;;5053543;28;20199;-84
2021/06/08 04:03:14;;;;;;;21.73;17.13;;;15.10;87.40;;;;;;5052269;28;20561;-84
2021/06/08 04:05:41;;;;;;;23.25;19.38;;;15.00;87.40;;;;;;5052231;28;20234;-84
2021/06/08 04:08:10;;;;;;;21.52;19.30;;;15.10;87.30;;;;;;5053432;28;20192;-84
2021/06/08 04:10:36;;;;;;;21.83;19.38;;;15.00;87.20;;;;;;5052029;28;20612;-85
2021/06/08 04:13:04;;;;;;;21.70;19.50;;;15.00;87.20;;;;;;5052105;28;20550;-84
2021/06/08 04:15:31;;;;;;;21.93;19.57;;;15.00;87.30;;;;;;5053339;28;20174;-84
2021/06/08 04:17:57;;;;;;;22.50;18.87;;;15.00;87.20;;;;;;5053198;28;20187;-85
2021/06/08 04:20:26;;;;;;;22.02;19.15;;;15.00;87.10;;;;;;5051965;28;20586;-84
2021/06/08 04:22:58;;;;;;;23.08;18.55;;;15.00;87.20;;;;;;5053215;28;20211;-84
2021/06/08 04:25:25;;;;;;;22.40;18.90;;;15.00;87.30;;;;;;5051920;28;20183;-84
2021/06/08 04:27:51;;;;;;;24.73;19.75;;;14.90;87.60;;;;;;5051839;28;20333;-85
2021/06/08 04:30:17;;;;;;;27.38;19.05;;;15.00;87.70;;;;;;5053038;28;20667;-84
2021/06/08 04:32:45;;;;;;;23.23;18.58;;;15.00;87.70;;;;;;5053183;28;20655;-85
2021/06/08 04:35:11;;;;;;;20.92;18.42;;;15.00;87.60;;;;;;5051784;28;20183;-84
2021/06/08 04:37:37;;;;;;;22.40;17.88;;;15.10;87.60;;;;;;5077096;22;20269;-84
2021/06/08 04:40:05;;;;;;;19.98;17.80;;;15.10;87.50;;;;;;5051884;28;20183;-86
2021/06/08 04:42:31;;;;;;;20.35;18.15;;;15.20;87.50;;;;;;5051828;28;20180;-87
2021/06/08 04:44:57;;;;;;;20.50;16.85;;;15.20;87.40;;;;;;5053375;28;20163;-87
2021/06/08 04:47:23;;;;;;;24.67;17.55;;;15.20;87.40;;;;;;5052971;28;20217;-87
2021/06/08 04:49:50;;;;;;;20.58;17.10;;;15.20;87.40;;;;;;5053300;28;20235;-87
2021/06/08 04:52:16;;;;;;;17.90;16.05;;;15.20;87.50;;;;;;5052979;28;20172;-87
2021/06/08 04:54:42;;;;;;;19.80;16.65;;;15.30;87.50;;;;;;5051787;28;20207;-87
2021/06/08 04:57:12;;;;;;;19.67;17.65;;;15.30;87.60;;;;;;5054298;28;20168;-86
2021/06/08 04:59:46;;;;;;;22.75;17.92;;;15.30;87.60;;;;;;5055862;28;20180;-86
2021/06/08 05:02:23;;;;;;;19.85;17.90;;;15.40;87.70;;;;;;5055959;28;20179;-87
2021/06/08 05:04:51;;;;;;;20.15;18.13;;;15.50;87.90;;;;;;5055772;28;20551;-87
2021/06/08 05:07:19;;;;;;;23.13;17.88;;;15.60;87.80;;;;;;5055663;28;20207;-87
2021/06/08 05:09:48;;;;;;;20.08;17.92;;;15.60;87.60;;;;;;5056893;28;20678;-87
2021/06/08 05:12:16;;;;;;;27.83;17.80;;;15.70;87.40;;;;;;5055614;28;20225;-87
2021/06/08 05:14:50;;;;;;;19.77;17.83;;;15.70;87.70;;;;;;5055549;28;20544;-87
2021/06/08 05:17:18;;;;;;;20.10;17.83;;;15.70;87.40;;;;;;5055415;28;20565;-86
2021/06/08 05:19:46;;;;;;;24.73;16.73;;;15.80;87.40;;;;;;5055436;28;20176;-87
2021/06/08 05:22:14;;;;;;;17.88;16.10;;;15.80;86.60;;;;;;5055498;28;20175;-87
2021/06/08 05:24:40;;;;;;;16.95;15.07;;;15.90;86.30;;;;;;5055457;28;20663;-87
2021/06/08 05:27:09;;;;;;;22.00;14.55;;;15.90;86.20;;;;;;5055260;28;20694;-87
2021/06/08 05:29:35;;;;;;;16.45;14.07;;;16.00;86.10;;;;;;5055236;28;20192;-87
2021/06/08 05:32:01;;;;;;;18.42;16.65;;;15.90;85.90;;;;;;5055252;28;20175;-87
2021/06/08 05:34:26;;;;;;;19.98;17.38;;;16.00;85.70;;;;;;5056547;28;20631;-87
2021/06/08 05:36:52;;;;;;;19.73;17.02;;;15.90;86.00;;;;;;5055107;28;20674;-87
2021/06/08 05:39:18;;;;;;;18.83;16.92;;;16.00;85.60;;;;;;5055065;28;20199;-87
2021/06/08 05:41:43;;;;;;;22.67;18.48;;;16.00;85.70;;;;;;5056326;28;20181;-87
2021/06/08 05:44:11;;;;;;;18.95;17.00;;;16.00;85.80;;;;;;5055091;28;20584;-84
2021/06/08 05:46:37;;;;;;;18.40;16.60;;;16.00;86.20;;;;;;5054990;28;20650;-84
2021/06/08 05:49:08;;;;;;;16.65;14.85;;;16.10;86.70;;;;;;5055072;28;20607;-84
2021/06/08 05:51:35;;;;;;;17.83;15.05;;;16.00;86.00;;;;;;5055023;28;20172;-84
2021/06/08 05:54:04;;;;;;;16.77;13.30;;;16.20;85.70;;;;;;5055003;28;20176;-87
2021/06/08 05:56:35;;;;;;;20.55;14.10;;;16.20;85.60;;;;;;5056026;28;20664;-87
2021/06/08 05:59:01;;;;;;;15.65;14.02;;;16.30;85.40;;;;;;5054726;28;20226;-87
2021/06/08 06:01:27;;;;;;;15.27;12.93;;;16.30;85.20;;;;;;5056010;28;20179;-87
2021/06/08 06:03:54;;;;;;;14.35;12.75;;;16.30;84.90;;;;;;5055983;28;20207;-87
2021/06/08 06:06:20;;;;;;;14.70;13.00;;;16.40;84.60;;;;;;5055908;28;20176;-87
2021/06/08 06:08:46;;;;;;;15.25;12.82;;;16.40;84.70;;;;;;5053930;28;20235;-87
2021/06/08 06:11:16;;;;;;;15.63;12.73;;;16.50;84.90;;;;;;5055727;28;20661;-87
2021/06/08 06:13:54;;;;;;;16.73;13.05;;;16.50;84.80;;;;;;5054559;28;20252;-87
2021/06/08 06:16:21;;;;;;;14.07;12.57;;;16.50;85.20;;;;;;5054543;28;20172;-87
2021/06/08 06:18:47;;;;;;;14.45;13.05;;;16.50;85.00;;;;;;5054326;28;20199;-87
2021/06/08 06:21:14;;;;;;;15.00;13.40;;;16.50;85.10;;;;;;5055659;28;20168;-87
2021/06/08 06:23:40;;;;;;;14.85;13.40;;;16.60;85.50;;;;;;5054417;28;20184;-88
2021/06/08 06:26:06;;;;;;;16.30;12.95;;;16.50;84.90;;;;;;5055605;28;20255;-87
2021/06/08 06:28:33;;;;;;;19.80;13.75;;;16.60;84.80;;;;;;5054291;28;20617;-87
2021/06/08 06:31:00;;;;;;;15.20;13.60;;;16.60;85.30;;;;;;5054205;28;20568;-86
2021/06/08 06:33:25;;;;;;;14.82;13.30;;;16.60;85.00;;;;;;5054243;28;20176;-85
2021/06/08 06:35:51;;;;;;;16.02;13.32;;;16.60;84.70;;;;;;5055494;28;20171;-85
2021/06/08 06:38:19;;;;;;;15.82;14.18;;;16.70;84.70;;;;;;5055410;28;20238;-85
2021/06/08 06:40:45;;;;;;;14.82;13.32;;;16.70;84.50;;;;;;5054195;28;20175;-85
2021/06/08 06:43:33;;;;;;;18.70;13.57;;;16.80;84.80;;;;;;5054050;28;20179;-85
2021/06/08 06:45:59;;;;;;;14.38;13.05;;;16.90;84.50;;;;;;5055344;28;20244;-85
2021/06/08 06:48:25;;;;;;;14.27;12.80;;;17.00;84.50;;;;;;5055192;28;20624;-85
2021/06/08 06:50:52;;;;;;;16.63;12.85;;;17.10;84.20;;;;;;5053781;28;20275;-85
2021/06/08 06:53:18;;;;;;;14.35;12.55;;;17.20;83.80;;;;;;5055012;28;20539;-85
2021/06/08 06:55:49;;;;;;;13.75;12.02;;;17.30;83.30;;;;;;5053676;28;20172;-85
2021/06/08 06:58:19;;;;;;;14.45;12.82;;;17.40;83.30;;;;;;5054910;28;20220;-84
2021/06/08 07:00:44;;;;;;;13.68;12.23;;;17.40;83.30;;;;;;5054860;28;20175;-84
2021/06/08 07:03:11;;;;;;;14.00;11.57;;;17.40;82.70;;;;;;5054826;28;20258;-84
2021/06/08 07:05:38;;;;;;;14.63;11.25;;;17.40;82.90;;;;;;5055080;28;20520;-85
2021/06/08 07:08:05;;;;;;;16.30;12.45;;;17.40;82.30;;;;;;5054631;28;20195;-85
2021/06/08 07:10:31;;;;;;;13.73;12.20;;;17.50;82.50;;;;;;5053404;28;20207;-85
2021/06/08 07:13:03;;;;;;;14.73;11.80;;;17.50;82.80;;;;;;5053365;28;20183;-84
2021/06/08 07:15:30;;;;;;;16.58;12.32;;;17.70;82.50;;;;;;5053409;28;20286;-85
2021/06/08 07:17:56;;;;;;;17.08;12.38;;;17.70;82.50;;;;;;5054441;28;20199;-84
2021/06/08 07:20:25;;;;;;;16.15;12.20;;;17.70;81.90;;;;;;5052284;28;20190;-84
2021/06/08 07:22:51;;;;;;;14.10;11.90;;;17.70;82.00;;;;;;5053183;28;20631;-84
2021/06/08 07:25:18;;;;;;;13.50;12.18;;;17.80;82.10;;;;;;5053141;28;20176;-84
2021/06/08 07:27:45;;;;;;;14.45;11.23;;;17.90;82.00;;;;;;5053036;28;20192;-84
2021/06/08 07:30:13;;;;;;;17.20;12.80;;;17.80;81.30;;;;;;5052977;28;20683;-85
2021/06/08 07:33:03;;;;;;;16.02;12.90;;;18.00;82.30;;;;;;5054171;28;20603;-84
2021/06/08 07:35:44;;;;;;;15.00;12.13;;;18.10;82.10;;;;;;5054859;28;20152;-85
2021/06/08 07:38:16;;;;;;;15.90;13.75;;;18.20;81.80;;;;;;5052730;28;20609;-85
2021/06/08 07:40:49;;;;;;;14.50;12.20;;;18.30;81.90;;;;;;5052987;28;20624;-84
2021/06/08 07:43:20;;;;;;;15.35;11.82;;;18.30;81.60;;;;;;5054390;28;20157;-84
2021/06/08 07:45:50;;;;;;;13.88;12.43;;;18.40;80.00;;;;;;5052811;28;20180;-85
2021/06/08 07:48:26;;;;;;;15.73;11.93;;;18.50;80.40;;;;;;5053849;28;20675;-84
2021/06/08 07:50:55;;;;;;;12.38;11.10;;;18.50;80.60;;;;;;5052583;28;20206;-85
2021/06/08 07:53:22;;;;;;;13.20;11.90;;;18.70;79.90;;;;;;5052641;28;20640;-85
2021/06/08 07:55:49;;;;;;;14.15;12.25;;;18.70;80.00;;;;;;5053268;28;20594;-85
2021/06/08 07:58:25;;;;;;;13.85;11.50;;;18.80;80.80;;;;;;5052615;28;20191;-85
2021/06/08 08:00:52;;;;;;;14.40;11.23;;;18.80;79.30;;;;;;5054154;28;20187;-85
2021/06/08 08:03:28;;;;;;;14.15;11.00;;;19.10;79.00;;;;;;5053786;28;20176;-85
2021/06/08 08:06:15;;;;;;;13.68;10.90;;;19.30;79.70;;;;;;5053710;28;20268;-85
2021/06/08 08:08:43;;;;;;;10.05;8.48;;;19.70;78.50;;;;;;5052330;28;20677;-85
2021/06/08 08:11:11;;;;;;;10.05;9.05;;;19.90;75.20;;;;;;5053488;28;20291;-84
2021/06/08 08:13:40;;;;;;;12.73;9.25;;;20.10;75.60;;;;;;5052247;28;20203;-85
2021/06/08 08:16:07;;;;;;;11.63;7.93;;;20.50;74.00;;;;;;5052142;28;20267;-85
2021/06/08 08:18:34;;;;;;;8.57;6.22;;;20.80;71.20;;;;;;5052160;28;20235;-84
2021/06/08 08:21:00;;;;;;;12.02;7.47;;;20.70;66.70;;;;;;5052097;28;20184;-84
2021/06/08 08:23:29;;;;;;;9.25;7.45;;;20.60;68.80;;;;;;5052148;28;20186;-85
2021/06/08 08:25:56;;;;;;;9.93;7.53;;;20.80;70.90;;;;;;5053305;28;20620;-85
2021/06/08 08:28:22;;;;;;;8.10;7.30;;;21.00;70.70;;;;;;5053242;28;20192;-85
2021/06/08 08:30:48;;;;;;;12.68;8.02;;;20.90;68.40;;;;;;5051771;28;20223;-85
2021/06/08 08:33:14;;;;;;;8.27;7.47;;;20.80;70.40;;;;;;5053239;28;20317;-84
2021/06/08 08:35:40;;;;;;;7.53;6.82;;;20.90;69.80;;;;;;5053470;28;20183;-85
2021/06/08 08:38:06;;;;;;;7.75;6.97;;;20.90;69.30;;;;;;5052965;28;20208;-84
2021/06/08 08:40:33;;;;;;;10.55;7.70;;;21.00;68.60;;;;;;5053188;28;20263;-84
2021/06/08 08:43:02;;;;;;;9.48;7.55;;;20.90;68.90;;;;;;5053414;28;20678;-84
2021/06/08 08:45:30;;;;;;;9.95;8.18;;;20.80;68.10;;;;;;5051945;28;20184;-85
2021/06/08 08:47:56;;;;;;;7.68;6.85;;;20.80;69.30;;;;;;5051760;28;20556;-85
2021/06/08 08:50:23;;;;;;;7.82;7.03;;;21.00;68.50;;;;;;5053256;28;20198;-85
2021/06/08 08:53:07;;;;;;;7.75;6.78;;;21.10;69.10;;;;;;5053307;28;20263;-85
2021/06/08 08:55:35;;;;;;;7.47;6.78;;;21.30;67.90;;;;;;5053076;28;20148;-85
2021/06/08 08:58:02;;;;;;;9.60;6.97;;;21.30;66.50;;;;;;5052982;28;20713;-85
2021/06/08 09:00:30;;;;;;;12.63;7.13;;;21.40;65.40;;;;;;5051717;28;20197;-85
2021/06/08 09:02:59;;;;;;;13.35;7.22;;;21.60;66.10;;;;;;5052980;28;20183;-85
2021/06/08 09:05:25;;;;;;;13.18;7.43;;;21.80;65.10;;;;;;5051730;28;20180;-85
2021/06/08 09:07:51;;;;;;;8.13;6.85;;;21.90;62.90;;;;;;5052826;28;20267;-85
2021/06/08 09:10:18;;;;;;;9.20;7.82;;;22.00;63.60;;;;;;5051559;28;20203;-85
2021/06/08 09:12:44;;;;;;;9.43;6.13;;;22.30;63.60;;;;;;5052884;28;20173;-85
2021/06/08 09:15:10;;;;;;;12.20;7.15;;;22.00;59.60;;;;;;5051573;28;20172;-85
2021/06/08 09:17:39;;;;;;;8.15;7.20;;;22.00;63.40;;;;;;5052712;28;20659;-87
2021/06/08 09:20:09;;;;;;;8.32;7.07;;;22.00;62.40;;;;;;5051619;28;20643;-86
2021/06/08 09:22:56;;;;;;;7.20;5.88;;;22.30;62.60;;;;;;5051536;28;20523;-86
2021/06/08 09:25:37;;;;;;;7.45;6.05;;;22.40;62.70;;;;;;5052863;28;20191;-85
2021/06/08 09:28:21;;;;;;;6.22;5.72;;;22.20;60.30;;;;;;5051466;28;20195;-85
2021/06/08 09:30:48;;;;;;;10.10;5.70;;;22.30;64.30;;;;;;5052892;28;20206;-85
2021/06/08 09:33:29;;;;;;;5.57;3.88;;;22.60;60.50;;;;;;5050580;28;20450;-86
2021/06/08 09:35:58;;;;;;;5.50;5.00;;;22.70;58.60;;;;;;5051480;28;20201;-85
2021/06/08 09:38:39;;;;;;;7.00;5.07;;;22.70;57.60;;;;;;5052621;28;20639;-86
2021/06/08 09:41:33;;;;;;;7.13;5.50;;;22.70;61.40;;;;;;5052714;28;20651;-85
2021/06/08 09:44:00;;;;;;;11.50;6.15;;;23.20;59.10;;;;;;5055174;28;20183;-85
2021/06/08 09:46:33;;;;;;;7.88;6.25;;;23.20;59.80;;;;;;5056293;28;20263;-85
2021/06/08 09:49:07;;;;;;;6.38;5.65;;;23.50;57.70;;;;;;5054870;28;20204;-85
2021/06/08 09:51:57;;;;;;;6.25;5.40;;;23.60;58.40;;;;;;5056258;28;20166;-86
2021/06/08 09:54:38;;;;;;;8.90;6.68;;;23.60;60.20;;;;;;5056593;28;20198;-86
2021/06/08 09:57:29;;;;;;;9.25;6.00;;;24.00;57.80;;;;;;5056058;28;20156;-85
2021/06/08 09:59:59;;;;;;;10.50;5.63;;;23.70;56.90;;;;;;5056059;28;20161;-85
2021/06/08 10:02:43;;;;;;;7.47;5.00;;;23.70;56.20;;;;;;5054719;28;20180;-85
2021/06/08 10:05:16;;;;;;;8.77;5.07;;;23.60;55.80;;;;;;5054795;28;20619;-85
2021/06/08 10:07:42;;;;;;;6.15;4.50;;;23.70;56.40;;;;;;5054530;28;20200;-85
2021/06/08 10:10:11;;;;;;;7.47;4.75;;;24.50;53.40;;;;;;5055780;28;20199;-85
2021/06/08 10:13:02;;;;;;;8.00;5.53;;;24.40;52.70;;;;;;5055725;28;20168;-85
2021/06/08 10:15:33;;;;;;;7.70;5.10;;;24.10;54.10;;;;;;5048879;28;20238;-85
2021/06/08 10:18:05;;;;;;;8.68;4.35;;;24.00;54.40;;;;;;5054337;28;20192;-85
2021/06/08 10:20:34;;;;;;;5.95;4.40;;;23.90;54.60;;;;;;5054411;28;20180;-85
2021/06/08 10:23:15;;;;;;;5.20;3.20;;;23.70;55.20;;;;;;5054399;28;20180;-85
2021/06/08 10:25:41;;;;;;;8.80;4.25;;;23.90;54.70;;;;;;5055541;28;20164;-85
2021/06/08 10:28:10;;;;;;;10.88;4.43;;;24.20;55.30;;;;;;5055673;28;20230;-86
2021/06/08 10:30:37;;;;;;;7.82;4.80;;;23.90;53.00;;;;;;5054245;28;20578;-85
2021/06/08 10:33:04;;;;;;;5.93;4.93;;;24.10;56.10;;;;;;5055436;28;20175;-85
2021/06/08 10:35:29;;;;;;;6.93;4.50;;;24.70;52.20;;;;;;5054151;28;20183;-86
2021/06/08 10:37:56;;;;;;;4.20;3.80;;;24.80;53.40;;;;;;5146096;22;20224;-86
2021/06/08 10:40:22;;;;;;;7.65;4.20;;;25.20;53.60;;;;;;5054700;28;20191;-86
2021/06/08 10:42:47;;;;;;;5.88;3.80;;;24.80;51.00;;;;;;5054410;28;20541;-87
2021/06/08 10:45:13;;;;;;;7.38;5.32;;;24.70;51.70;;;;;;5056364;28;20186;-87
2021/06/08 10:47:44;;;;;;;5.55;4.72;;;25.10;53.10;;;;;;5055767;28;20203;-87
2021/06/08 10:50:26;;;;;;;5.45;4.70;;;24.90;49.90;;;;;;5054236;28;20192;-88
2021/06/08 10:52:55;;;;;;;5.00;3.45;;;24.60;49.40;;;;;;5055366;28;20178;-87
2021/06/08 10:55:41;;;;;;;8.68;3.83;;;24.70;52.80;;;;;;5055142;28;20169;-86
2021/06/08 10:58:08;;;;;;;5.78;4.85;;;24.80;53.80;;;;;;5055307;28;20563;-86
2021/06/08 11:00:40;;;;;;;7.00;3.72;;;24.80;50.30;;;;;;5053924;28;20172;-87
2021/06/08 11:03:08;;;;;;;7.53;4.82;;;25.10;52.10;;;;;;5053793;28;20527;-87
2021/06/08 11:05:47;;;;;;;8.50;4.53;;;24.80;48.60;;;;;;5054949;28;20186;-87
2021/06/08 11:08:13;;;;;;;5.78;3.78;;;24.80;53.10;;;;;;5054863;28;20195;-87
2021/06/08 11:10:43;;;;;;;5.72;4.40;;;25.50;51.60;;;;;;5053664;28;20278;-87
2021/06/08 11:13:09;;;;;;;14.90;4.47;;;25.50;51.00;;;;;;5055188;28;20211;-87
2021/06/08 11:15:38;;;;;;;5.90;4.20;;;25.10;50.90;;;;;;5054956;28;20644;-87
2021/06/08 11:18:37;;;;;;;5.07;3.45;;;24.80;51.60;;;;;;5053543;28;20183;-85
2021/06/08 11:21:05;;;;;;;7.68;4.05;;;24.60;50.20;;;;;;5053158;28;20315;-86
2021/06/08 11:23:35;;;;;;;4.63;3.85;;;24.90;49.60;;;;;;5053827;28;20194;-85
2021/06/08 11:26:02;;;;;;;4.03;3.50;;;24.50;48.30;;;;;;5055037;28;20164;-86
2021/06/08 11:28:45;;;;;;;3.22;2.92;;;24.80;50.40;;;;;;5054837;28;20590;-85
2021/06/08 11:31:12;;;;;;;4.20;3.67;;;25.40;49.80;;;;;;5055130;28;20214;-86
2021/06/08 11:33:46;;;;;;;7.15;3.80;;;25.80;47.90;;;;;;5054163;28;20176;-87
2021/06/08 11:36:18;;;;;;;4.93;3.17;;;26.00;47.40;;;;;;5053328;28;20271;-86
2021/06/08 11:38:48;;;;;;;3.88;2.38;;;25.80;49.00;;;;;;5052864;28;20672;-86
2021/06/08 11:41:14;;;;;;;2.53;2.33;;;25.60;46.80;;;;;;5053405;28;20715;-86
2021/06/08 11:43:46;;;;;;;8.43;2.30;;;25.10;47.30;;;;;;5053005;28;20233;-87
2021/06/08 11:46:28;;;;;;;2.97;2.17;;;25.20;45.60;;;;;;5054351;28;20177;-88
2021/06/08 11:49:23;;;;;;;3.05;2.28;;;25.50;48.20;;;;;;5054523;28;20230;-89
2021/06/08 11:52:05;;;;;;;2.72;2.22;;;25.70;47.90;;;;;;5041762;28;20601;-88
2021/06/08 11:54:31;;;;;;;3.33;2.42;;;25.40;45.10;;;;;;5054145;28;20152;-88
2021/06/08 11:57:01;;;;;;;3.25;2.40;;;25.00;45.50;;;;;;5052887;28;20203;-89
2021/06/08 11:59:43;;;;;;;2.22;1.73;;;25.50;50.10;;;;;;5054002;28;20369;-88
2021/06/08 12:02:31;;;;;;;4.43;2.33;;;25.60;47.70;;;;;;5052808;28;20176;-88
2021/06/08 12:05:15;;;;;;;2.13;1.92;;;25.10;45.50;;;;;;5054097;28;20160;-89
2021/06/08 12:07:53;;;;;;;2.95;2.22;;;24.60;46.70;;;;;;5052687;28;20577;-89
2021/06/08 12:10:32;;;;;;;2.83;2.05;;;24.60;44.20;;;;;;5053854;28;20199;-88
2021/06/08 12:12:58;;;;;;;3.65;1.98;;;24.90;45.10;;;;;;5053876;28;20163;-89
2021/06/08 12:15:26;;;;;;;5.10;2.63;;;25.10;48.10;;;;;;5052546;28;20241;-88
2021/06/08 12:18:04;;;;;;;3.58;3.08;;;25.30;49.10;;;;;;5052496;28;20246;-89
2021/06/08 12:20:31;;;;;;;5.00;2.30;;;25.60;49.90;;;;;;5052580;28;20179;-89
2021/06/08 12:22:57;;;;;;;5.15;3.05;;;25.90;48.50;;;;;;5053934;28;20187;-87
2021/06/08 12:25:23;;;;;;;4.18;3.08;;;26.00;45.70;;;;;;5052741;28;20234;-87
2021/06/08 12:27:49;;;;;;;4.25;2.45;;;26.40;46.40;;;;;;5053774;28;20198;-87
2021/06/08 12:30:24;;;;;;;3.58;2.90;;;27.00;45.80;;;;;;5052640;28;20643;-87
2021/06/08 12:32:57;;;;;;;4.57;3.13;;;27.00;46.10;;;;;;5053905;28;20239;-87
2021/06/08 12:35:23;;;;;;;4.93;2.72;;;27.20;44.60;;;;;;5052694;28;20699;-87
2021/06/08 12:37:50;;;;;;;3.25;2.55;;;27.40;43.40;;;;;;5052218;28;20291;-87
2021/06/08 12:40:18;;;;;;;4.20;3.78;;;27.70;43.80;;;;;;5053945;28;20182;-87
2021/06/08 12:42:43;;;;;;;6.30;3.85;;;27.40;45.40;;;;;;5053708;28;20175;-87
2021/06/08 12:45:10;;;;;;;5.13;3.47;;;27.60;46.50;;;;;;5052274;28;20180;-87